Kedgwick, Canada
Current Conditions -  °F | °C
As of 6:53 PM on Friday 28 Nov 2014 (Local Time) from KFVE Reporting Station
Light Snow Light Snow  
Wind Chill: 15°   Ceiling: 4000
Heat Index: 15°   Visibility: 3mi
Dew Point: 12°   Wind: 3mph
Humidity: 88%   Direction: 310°NW
Pressure: 29.98"   Gusts: NA
Location:  47.63°N, 67.33°W
Report Text: KFVE 282253Z AUTO 31003KT 3SM -SN BR OVC040 M09/M11 A2998 RMK AO2 SLP173 P0000 T10941111
Loading
Personal Weather Stations






























Interactive Weather Map New forecast layout! Learn more

10-Day Weather Forecast

Advertisements
Track Severe Weather on mobile